Time;durP1;ratioP1;P1;durP2;ratioP2;P2;SDS_P1;SDS_P2;PMS_P1;PMS_P2;Temp;Humidity;BMP_temperature;BMP_pressure;BME280_temperature;BME280_humidity;BME280_pressure;Samples;Min_cycle;Max_cycle;Signal;HPM_P1;HPM_P2
2021/08/22 00:00:30;;;;;;;;;;;;;;;35.11;18.05;94728.88;5074581;28;19929;-68
2021/08/22 00:02:57;;;;;;;;;;;;;;;35.35;18.10;94727.34;5091194;28;20234;-66
2021/08/22 00:05:24;;;;;;;;;;;;;;;35.18;17.86;94728.66;5077883;28;19920;-66
2021/08/22 00:07:51;;;;;;;;;;;;;;;35.34;17.69;94720.38;5073213;28;19921;-68
2021/08/22 00:10:18;;;;;;;;;;;;;;;35.35;17.83;94732.03;5073339;28;19920;-68
2021/08/22 00:12:44;;;;;;;;;;;;;;;34.79;18.72;94730.56;5083984;28;19920;-71
2021/08/22 00:15:12;;;;;;;;;;;;;;;34.96;18.55;94722.38;5093308;28;19931;-70
2021/08/22 00:17:39;;;;;;;;;;;;;;;34.94;18.71;94728.22;5077014;28;19920;-70
2021/08/22 00:20:06;;;;;;;;;;;;;;;34.86;18.62;94735.81;5073124;28;20335;-66
2021/08/22 00:22:33;;;;;;;;;;;;;;;34.85;18.40;94734.28;5075302;28;20259;-69
2021/08/22 00:25:00;;;;;;;;;;;;;;;35.25;18.18;94736.59;5083219;28;20398;-68
2021/08/22 00:27:27;;;;;;;;;;;;;;;35.08;17.88;94740.59;5073404;28;19917;-67
2021/08/22 00:29:54;;;;;;;;;;;;;;;35.08;17.94;94735.94;5073059;28;20365;-68
2021/08/22 00:32:21;;;;;;;;;;;;;;;34.86;18.26;94740.50;5088689;28;19928;-69
2021/08/22 00:34:47;;;;;;;;;;;;;;;34.99;18.14;94743.22;5086372;28;20539;-67
2021/08/22 00:37:14;;;;;;;;;;;;;;;35.00;18.19;94748.22;5077907;28;19920;-69
2021/08/22 00:39:41;;;;;;;;;;;;;;;34.98;18.08;94742.47;5078186;28;19921;-69
2021/08/22 00:42:08;;;;;;;;;;;;;;;34.85;18.38;94744.41;5086766;28;20235;-69
2021/08/22 00:44:35;;;;;;;;;;;;;;;35.07;18.56;94748.00;5093727;28;19920;-59
2021/08/22 00:47:02;;;;;;;;;;;;;;;34.39;18.94;94745.72;5093732;28;19923;-52
2021/08/22 00:49:29;;;;;;;;;;;;;;;34.45;18.61;94754.84;5078244;28;19921;-52
2021/08/22 00:51:56;;;;;;;;;;;;;;;34.17;18.95;94756.38;5078182;28;19920;-50
2021/08/22 00:54:23;;;;;;;;;;;;;;;34.40;18.81;94758.09;5094411;28;19916;-52
2021/08/22 00:56:54;;;;;;;;;;;;;;;34.43;18.80;94757.25;5098209;28;19931;-49
2021/08/22 00:59:22;;;;;;;;;;;;;;;34.59;18.50;94749.00;5098281;28;20274;-49
2021/08/22 01:01:49;;;;;;;;;;;;;;;34.43;18.60;94751.81;5105905;28;20234;-50
2021/08/22 01:04:17;;;;;;;;;;;;;;;34.61;18.53;94762.91;5101316;28;19920;-48
2021/08/22 01:06:59;;;;;;;;;;;;;;;34.89;18.09;94758.66;5098086;28;19916;-49
2021/08/22 01:09:40;;;;;;;;;;;;;;;34.87;18.16;94753.66;5098171;28;19923;-49
2021/08/22 01:12:09;;;;;;;;;;;;;;;34.78;18.41;94753.50;5098005;28;19923;-49
2021/08/22 01:14:37;;;;;;;;;;;;;;;34.70;18.53;94749.47;5096805;28;19931;-49
2021/08/22 01:17:04;;;;;;;;;;;;;;;35.02;18.07;94748.53;5096764;28;20334;-50
2021/08/22 01:19:34;;;;;;;;;;;;;;;34.84;18.52;94753.75;5095784;28;19931;-51
2021/08/22 01:22:02;;;;;;;;;;;;;;;34.90;18.38;94744.63;5097844;28;19928;-49
2021/08/22 01:24:29;;;;;;;;;;;;;;;34.78;18.59;94744.59;5096001;28;19920;-48
2021/08/22 01:26:56;;;;;;;;;;;;;;;34.91;18.40;94738.00;5096579;28;20257;-49
2021/08/22 01:29:24;;;;;;;;;;;;;;;35.13;18.13;94731.91;5096747;28;19930;-49
2021/08/22 01:31:50;;;;;;;;;;;;;;;35.06;17.99;94738.31;5090247;28;19924;-51
2021/08/22 01:34:18;;;;;;;;;;;;;;;35.02;17.92;94739.63;5124513;27;19923;-50
2021/08/22 01:36:45;;;;;;;;;;;;;;;35.07;18.27;94739.84;5095927;28;19927;-49
2021/08/22 01:39:11;;;;;;;;;;;;;;;34.91;18.25;94754.31;5096975;28;19920;-49
2021/08/22 01:41:38;;;;;;;;;;;;;;;34.76;18.44;94745.03;5097456;28;20233;-51
2021/08/22 01:44:05;;;;;;;;;;;;;;;34.91;18.18;94740.72;5096086;28;20218;-49
2021/08/22 01:46:33;;;;;;;;;;;;;;;34.85;18.48;94739.72;5097027;28;19920;-49
2021/08/22 01:49:00;;;;;;;;;;;;;;;34.77;18.41;94751.97;5097508;28;19927;-52
2021/08/22 01:51:27;;;;;;;;;;;;;;;34.89;18.41;94751.28;5095563;28;19920;-48
2021/08/22 01:54:08;;;;;;;;;;;;;;;35.16;18.16;94747.34;5096669;28;19928;-50
2021/08/22 01:56:35;;;;;;;;;;;;;;;34.79;18.58;94744.16;5094756;28;19931;-51
2021/08/22 01:59:02;;;;;;;;;;;;;;;34.96;18.43;94749.53;5097237;28;19924;-52
2021/08/22 02:01:29;;;;;;;;;;;;;;;34.97;18.48;94748.31;5102198;28;19916;-51
2021/08/22 02:03:59;;;;;;;;;;;;;;;35.01;18.53;94746.25;5106529;28;19916;-48
2021/08/22 02:06:32;;;;;;;;;;;;;;;34.81;18.66;94739.03;5095910;28;20342;-49
2021/08/22 02:08:59;;;;;;;;;;;;;;;34.81;18.83;94749.91;5080995;28;19924;-49
2021/08/22 02:11:37;;;;;;;;;;;;;;;34.58;18.97;94752.91;5109394;28;19916;-49
2021/08/22 02:14:05;;;;;;;;;;;;;;;34.36;19.18;94752.03;5120586;27;19926;-49
2021/08/22 02:16:31;;;;;;;;;;;;;;;34.59;19.07;94744.34;5087636;28;19920;-49
2021/08/22 02:18:58;;;;;;;;;;;;;;;34.71;18.96;94744.81;5109161;28;19916;-49
2021/08/22 02:21:26;;;;;;;;;;;;;;;34.66;18.94;94748.81;5108944;28;19917;-48
2021/08/22 02:23:53;;;;;;;;;;;;;;;34.51;19.38;94753.13;5118600;27;19920;-49
2021/08/22 02:26:22;;;;;;;;;;;;;;;34.62;19.02;94748.16;5094619;28;19920;-51
2021/08/22 02:28:53;;;;;;;;;;;;;;;34.69;19.03;94750.66;5095980;28;19920;-50
2021/08/22 02:31:20;;;;;;;;;;;;;;;34.69;18.98;94747.94;5099027;28;19930;-51
2021/08/22 02:33:47;;;;;;;;;;;;;;;34.86;18.82;94748.63;5108214;28;20329;-49
2021/08/22 02:36:14;;;;;;;;;;;;;;;34.67;19.19;94755.78;5096501;28;19924;-49
2021/08/22 02:38:40;;;;;;;;;;;;;;;34.52;19.23;94754.66;5096210;28;19927;-49
2021/08/22 02:41:07;;;;;;;;;;;;;;;34.58;19.07;94752.91;5096335;28;20204;-49
2021/08/22 02:43:34;;;;;;;;;;;;;;;34.55;19.22;94753.78;5096109;28;20330;-50
2021/08/22 02:46:01;;;;;;;;;;;;;;;34.54;19.16;94753.03;5096146;28;19920;-49
2021/08/22 02:48:28;;;;;;;;;;;;;;;34.69;18.96;94750.66;5096160;28;20322;-48
2021/08/22 02:50:55;;;;;;;;;;;;;;;34.75;18.75;94750.88;5095942;28;19923;-49
2021/08/22 02:53:22;;;;;;;;;;;;;;;34.68;18.80;94754.56;5095464;28;20219;-48
2021/08/22 02:55:49;;;;;;;;;;;;;;;34.42;18.96;94747.56;5095968;28;19920;-49
2021/08/22 02:58:15;;;;;;;;;;;;;;;34.38;19.23;94747.69;5095532;28;19923;-53
2021/08/22 03:00:42;;;;;;;;;;;;;;;34.45;18.99;94750.19;5096063;28;19920;-50
2021/08/22 03:03:09;;;;;;;;;;;;;;;34.61;19.05;94752.03;5112466;28;19926;-54
2021/08/22 03:05:36;;;;;;;;;;;;;;;34.61;19.01;94752.03;5095814;28;20231;-51
2021/08/22 03:08:03;;;;;;;;;;;;;;;34.58;18.85;94753.69;5095775;28;19923;-51
2021/08/22 03:10:30;;;;;;;;;;;;;;;34.38;19.49;94746.91;5095924;28;19920;-50
2021/08/22 03:12:57;;;;;;;;;;;;;;;34.43;19.16;94757.25;5095627;28;20203;-48
2021/08/22 03:15:24;;;;;;;;;;;;;;;34.54;19.03;94754.97;5095778;28;19924;-49
2021/08/22 03:17:51;;;;;;;;;;;;;;;34.58;19.14;94752.91;5095797;28;20299;-49
2021/08/22 03:20:17;;;;;;;;;;;;;;;34.27;19.53;94750.66;5095655;28;19916;-48
2021/08/22 03:22:44;;;;;;;;;;;;;;;34.59;19.09;94754.44;5095628;28;20306;-52
2021/08/22 03:25:12;;;;;;;;;;;;;;;34.47;19.58;94752.47;5095456;28;19916;-51
2021/08/22 03:27:39;;;;;;;;;;;;;;;34.43;19.30;94755.28;5095217;28;19916;-49
2021/08/22 03:30:06;;;;;;;;;;;;;;;34.40;19.44;94758.09;5088283;28;19917;-48
2021/08/22 03:32:33;;;;;;;;;;;;;;;34.25;19.85;94752.28;5103237;28;20253;-50
2021/08/22 03:35:00;;;;;;;;;;;;;;;34.21;20.11;94757.03;5098809;28;19923;-49
2021/08/22 03:37:27;;;;;;;;;;;;;;;34.47;19.65;94749.75;5095416;28;19954;-49
2021/08/22 03:39:54;;;;;;;;;;;;;;;34.41;19.60;94754.19;5094973;28;19916;-50
2021/08/22 03:42:20;;;;;;;;;;;;;;;34.18;19.81;94747.03;5095443;28;19924;-48
2021/08/22 03:44:47;;;;;;;;;;;;;;;34.15;19.86;94753.31;5095264;28;19928;-50
2021/08/22 03:47:14;;;;;;;;;;;;;;;34.24;19.72;94761.59;5095101;28;19920;-49
2021/08/22 03:49:41;;;;;;;;;;;;;;;34.52;19.45;94755.41;5094648;28;19920;-49
2021/08/22 03:52:08;;;;;;;;;;;;;;;34.32;19.71;94758.25;5094713;28;19923;-49
2021/08/22 03:54:34;;;;;;;;;;;;;;;34.55;19.14;94753.78;5095176;28;19923;-50
2021/08/22 03:57:01;;;;;;;;;;;;;;;34.33;19.73;94762.47;5095184;28;19931;-52
2021/08/22 03:59:29;;;;;;;;;;;;;;;35.52;18.57;94761.34;5090095;28;19984;-49
2021/08/22 04:01:56;;;;;;;;;;;;;;;36.23;18.04;94771.06;5092476;28;19919;-49
2021/08/22 04:04:41;;;;;;;;;;;;;;;36.31;17.69;94772.38;5095144;28;19924;-50
2021/08/22 04:07:08;;;;;;;;;;;;;;;36.52;17.61;94773.56;5074946;28;19918;-49
2021/08/22 04:09:35;;;;;;;;;;;;;;;36.95;16.93;94780.94;5077713;28;20299;-50
2021/08/22 04:12:02;;;;;;;;;;;;;;;36.92;17.18;94779.09;5078841;28;19924;-49
2021/08/22 04:14:30;;;;;;;;;;;;;;;37.06;17.25;94781.31;5090178;28;20384;-52
2021/08/22 04:16:56;;;;;;;;;;;;;;;37.16;17.09;94774.66;5098919;28;19920;-53
2021/08/22 04:19:23;;;;;;;;;;;;;;;37.22;17.12;94783.78;5099147;28;19920;-52
2021/08/22 04:21:50;;;;;;;;;;;;;;;37.24;17.04;94784.09;5099123;28;20315;-51
2021/08/22 04:24:17;;;;;;;;;;;;;;;37.21;17.06;94790.44;5098701;28;19916;-50
2021/08/22 04:26:44;;;;;;;;;;;;;;;37.22;16.73;94783.78;5101302;28;19923;-50
2021/08/22 04:29:11;;;;;;;;;;;;;;;37.40;16.29;94787.81;5104450;28;19924;-51
2021/08/22 04:31:38;;;;;;;;;;;;;;;37.54;16.28;94781.78;5090593;28;19994;-48
2021/08/22 04:34:05;;;;;;;;;;;;;;;37.60;16.03;94779.97;5111310;28;19923;-50
2021/08/22 04:36:32;;;;;;;;;;;;;;;37.43;16.44;94776.75;5098578;28;19932;-50
2021/08/22 04:38:59;;;;;;;;;;;;;;;37.39;16.88;94787.03;5098392;28;19927;-52
2021/08/22 04:41:25;;;;;;;;;;;;;;;37.51;16.36;94790.88;5119058;28;19915;-51
2021/08/22 04:43:52;;;;;;;;;;;;;;;37.84;16.50;94789.16;5118436;28;19920;-49
2021/08/22 04:46:20;;;;;;;;;;;;;;;37.89;16.12;94796.72;5118789;28;19920;-50
2021/08/22 04:48:47;;;;;;;;;;;;;;;36.70;17.62;94798.94;5118619;28;19919;-55
2021/08/22 04:51:14;;;;;;;;;;;;;;;35.92;18.18;94790.00;5091984;28;19924;-51
2021/08/22 04:53:40;;;;;;;;;;;;;;;35.70;18.72;94800.81;5094677;28;19916;-56
2021/08/22 04:56:09;;;;;;;;;;;;;;;35.66;18.56;94797.44;5062879;28;19924;-57
2021/08/22 04:58:36;;;;;;;;;;;;;;;35.68;18.50;94814.06;5092980;28;20236;-52
2021/08/22 05:01:03;;;;;;;;;;;;;;;35.48;18.69;94817.78;5081990;28;20361;-52
2021/08/22 05:03:30;;;;;;;;;;;;;;;35.24;18.89;94816.56;5085628;28;19924;-54
2021/08/22 05:05:57;;;;;;;;;;;;;;;35.28;18.75;94811.03;5080630;28;19916;-50
2021/08/22 05:08:23;;;;;;;;;;;;;;;35.33;18.58;94805.81;5077642;28;19920;-52
2021/08/22 05:10:50;;;;;;;;;;;;;;;35.44;18.32;94817.16;5096317;28;19916;-47
2021/08/22 05:13:17;;;;;;;;;;;;;;;35.22;18.49;94808.09;5080861;28;20208;-49
2021/08/22 05:15:45;;;;;;;;;;;;;;;35.51;18.10;94816.91;5100431;28;20325;-46
2021/08/22 05:18:12;;;;;;;;;;;;;;;35.52;17.81;94813.00;5117861;28;19920;-47
2021/08/22 05:20:39;;;;;;;;;;;;;;;35.14;18.35;94809.50;5110189;28;19982;-48
2021/08/22 05:23:06;;;;;;;;;;;;;;;35.33;17.98;94816.66;5096321;28;19927;-52
2021/08/22 05:25:33;;;;;;;;;;;;;;;35.41;17.99;94807.16;5097286;28;19924;-47
2021/08/22 05:27:59;;;;;;;;;;;;;;;35.43;17.99;94812.16;5097388;28;19916;-49
2021/08/22 05:30:26;;;;;;;;;;;;;;;35.22;18.36;94810.81;5097371;28;20306;-47
2021/08/22 05:32:53;;;;;;;;;;;;;;;35.53;17.82;94813.75;5100376;28;19927;-48
2021/08/22 05:35:20;;;;;;;;;;;;;;;35.37;18.33;94811.91;5097107;28;19916;-46
2021/08/22 05:37:47;;;;;;;;;;;;;;;35.35;18.04;94819.75;5096744;28;19920;-47
2021/08/22 05:40:14;;;;;;;;;;;;;;;35.37;18.08;94817.34;5096669;28;20219;-48
2021/08/22 05:42:40;;;;;;;;;;;;;;;35.23;18.24;94812.34;5097200;28;19916;-52
2021/08/22 05:45:07;;;;;;;;;;;;;;;35.54;17.78;94816.03;5096808;28;19920;-47
2021/08/22 05:47:34;;;;;;;;;;;;;;;35.42;17.85;94816.81;5095790;28;19916;-48
2021/08/22 05:50:02;;;;;;;;;;;;;;;35.47;17.94;94819.00;5096092;28;20321;-50
2021/08/22 05:52:32;;;;;;;;;;;;;;;35.49;18.06;94813.88;5097054;28;19920;-48
2021/08/22 05:54:59;;;;;;;;;;;;;;;35.51;18.08;94810.72;5076457;28;20211;-47
2021/08/22 05:57:25;;;;;;;;;;;;;;;35.61;18.13;94817.00;5096139;28;19920;-48
2021/08/22 05:59:52;;;;;;;;;;;;;;;35.60;18.10;94818.97;5096626;28;20231;-48
2021/08/22 06:02:19;;;;;;;;;;;;;;;35.59;18.29;94819.41;5098609;28;19927;-48
2021/08/22 06:04:46;;;;;;;;;;;;;;;35.52;18.20;94813.00;5096754;28;19922;-48
2021/08/22 06:07:19;;;;;;;;;;;;;;;35.53;18.65;94819.19;5096438;28;20306;-49
2021/08/22 06:09:49;;;;;;;;;;;;;;;35.66;18.49;94816.47;5096667;28;19916;-48
2021/08/22 06:12:16;;;;;;;;;;;;;;;35.87;18.06;94820.47;5096221;28;19923;-48
2021/08/22 06:14:43;;;;;;;;;;;;;;;36.05;17.50;94815.97;5115291;28;19928;-48
2021/08/22 06:17:10;;;;;;;;;;;;;;;35.87;17.94;94821.22;5114632;28;19927;-50
2021/08/22 06:19:37;;;;;;;;;;;;;;;36.06;18.09;94820.22;5111461;28;19950;-49
2021/08/22 06:22:04;;;;;;;;;;;;;;;36.14;18.25;94813.31;5096281;28;20708;-50
2021/08/22 06:24:32;;;;;;;;;;;;;;;36.49;17.56;94812.56;5098647;28;19916;-47
2021/08/22 06:26:59;;;;;;;;;;;;;;;36.42;17.41;94810.84;5116227;28;20234;-47
2021/08/22 06:29:26;;;;;;;;;;;;;;;36.72;17.45;94812.13;5116781;28;19927;-48
2021/08/22 06:31:53;;;;;;;;;;;;;;;38.03;16.12;94808.28;5099809;28;19923;-48
2021/08/22 06:34:20;;;;;;;;;;;;;;;37.84;16.73;94810.97;5094113;28;19920;-55
2021/08/22 06:36:48;;;;;;;;;;;;;;;36.88;17.13;94813.88;5096097;28;19927;-46
2021/08/22 06:39:15;;;;;;;;;;;;;;;37.04;17.05;94822.63;5096108;28;19926;-47
2021/08/22 06:41:42;;;;;;;;;;;;;;;37.16;17.40;94812.81;5096050;28;20310;-51
2021/08/22 06:44:10;;;;;;;;;;;;;;;37.17;17.04;94814.34;5076499;28;19950;-46
2021/08/22 06:46:37;;;;;;;;;;;;;;;37.83;16.45;94809.47;5085062;28;19916;-45
2021/08/22 06:49:04;;;;;;;;;;;;;;;38.22;16.06;94813.31;5076064;28;19917;-45
2021/08/22 06:51:31;;;;;;;;;;;;;;;38.19;15.93;94814.22;5076226;28;19916;-48
2021/08/22 06:53:58;;;;;;;;;;;;;;;38.39;15.51;94816.50;5081218;28;19927;-45
2021/08/22 06:56:25;;;;;;;;;;;;;;;37.87;15.99;94818.25;5074931;28;20306;-46
2021/08/22 06:58:52;;;;;;;;;;;;;;;37.64;16.06;94818.78;5075445;28;20307;-47
2021/08/22 07:01:19;;;;;;;;;;;;;;;38.25;15.77;94817.09;5076615;28;20103;-51
2021/08/22 07:03:46;;;;;;;;;;;;;;;38.71;15.47;94826.03;5092660;28;19924;-49
2021/08/22 07:06:12;;;;;;;;;;;;;;;38.68;15.62;94820.75;5088535;28;19920;-49
2021/08/22 07:08:39;;;;;;;;;;;;;;;38.82;15.71;94820.13;5086947;28;20627;-50
2021/08/22 07:11:06;;;;;;;;;;;;;;;38.69;15.46;94819.53;5086223;28;19920;-50
2021/08/22 07:13:33;;;;;;;;;;;;;;;38.81;15.74;94829.53;5107601;28;19928;-50
2021/08/22 07:16:00;;;;;;;;;;;;;;;38.87;15.71;94822.22;5111134;28;19924;-51
2021/08/22 07:18:27;;;;;;;;;;;;;;;39.25;15.02;94812.72;5114259;28;19919;-53
2021/08/22 07:20:54;;;;;;;;;;;;;;;39.63;15.03;94820.34;5113713;28;19916;-50
2021/08/22 07:23:21;;;;;;;;;;;;;;;40.31;14.51;94818.50;5105032;28;19920;-55
2021/08/22 07:25:47;;;;;;;;;;;;;;;40.52;14.35;94821.41;5114081;28;19946;-50
2021/08/22 07:28:14;;;;;;;;;;;;;;;40.55;13.88;94820.47;5115043;28;20230;-56
2021/08/22 07:30:41;;;;;;;;;;;;;;;40.88;14.19;94825.84;5114586;28;19927;-51
2021/08/22 07:33:08;;;;;;;;;;;;;;;40.74;14.00;94816.34;5113849;28;19932;-56
2021/08/22 07:35:35;;;;;;;;;;;;;;;42.04;13.01;94817.09;5109384;28;19916;-54
2021/08/22 07:38:02;;;;;;;;;;;;;;;41.03;14.05;94820.34;5115104;28;19920;-53
2021/08/22 07:40:29;;;;;;;;;;;;;;;41.69;13.75;94825.38;5094600;28;19916;-51
2021/08/22 07:42:56;;;;;;;;;;;;;;;41.63;13.30;94810.78;5092793;28;19924;-53
2021/08/22 07:45:23;;;;;;;;;;;;;;;41.05;13.78;94820.63;5113612;28;20306;-60
2021/08/22 07:47:49;;;;;;;;;;;;;;;41.22;13.80;94810.69;5113575;28;19919;-50
2021/08/22 07:50:16;;;;;;;;;;;;;;;41.04;14.08;94816.38;5098703;28;20269;-52
2021/08/22 07:52:43;;;;;;;;;;;;;;;40.49;14.35;94823.13;5075559;28;19928;-54
2021/08/22 07:55:10;;;;;;;;;;;;;;;41.10;14.03;94814.47;5094822;28;19916;-57
2021/08/22 07:57:38;;;;;;;;;;;;;;;40.84;13.92;94812.31;5094706;28;20234;-51
2021/08/22 08:00:05;;;;;;;;;;;;;;;40.82;14.00;94806.53;5095244;28;19916;-51
2021/08/22 08:02:38;;;;;;;;;;;;;;;40.96;14.31;94816.75;5107779;28;19915;-52
2021/08/22 08:05:05;;;;;;;;;;;;;;;40.67;14.34;94811.25;5114786;28;19916;-52
2021/08/22 08:07:32;;;;;;;;;;;;;;;40.89;14.11;94808.91;5115569;28;19919;-50
2021/08/22 08:09:58;;;;;;;;;;;;;;;41.22;13.81;94807.94;5097593;28;19915;-50
2021/08/22 08:12:27;;;;;;;;;;;;;;;41.16;13.71;94805.13;5115369;28;19919;-52
2021/08/22 08:14:55;;;;;;;;;;;;;;;41.10;13.60;94803.50;5114979;28;19951;-53
2021/08/22 08:17:22;;;;;;;;;;;;;;;41.51;13.88;94810.66;5097828;28;20278;-50
2021/08/22 08:19:49;;;;;;;;;;;;;;;41.71;13.38;94806.47;5074000;28;19916;-52
2021/08/22 08:22:16;;;;;;;;;;;;;;;41.03;13.89;94803.88;5074746;28;20314;-56
2021/08/22 08:24:43;;;;;;;;;;;;;;;41.39;13.72;94806.25;5089838;28;19916;-53
2021/08/22 08:27:10;;;;;;;;;;;;;;;41.21;13.66;94798.97;5094813;28;19935;-52
2021/08/22 08:29:37;;;;;;;;;;;;;;;41.03;13.59;94801.16;5086947;28;20527;-53
2021/08/22 08:32:04;;;;;;;;;;;;;;;41.03;13.65;94801.91;5104144;28;19923;-55
2021/08/22 08:34:30;;;;;;;;;;;;;;;41.28;13.50;94806.06;5094419;28;19923;-50
2021/08/22 08:36:57;;;;;;;;;;;;;;;41.91;13.08;94798.25;5093596;28;19920;-52
2021/08/22 08:39:24;;;;;;;;;;;;;;;41.19;14.41;94795.94;5093682;28;19927;-53
2021/08/22 08:41:51;;;;;;;;;;;;;;;41.98;13.56;94797.81;5076689;28;19924;-54
2021/08/22 08:44:18;;;;;;;;;;;;;;;41.89;13.93;94800.69;5091581;28;19924;-55
2021/08/22 08:46:49;;;;;;;;;;;;;;;42.20;14.15;94793.88;5080043;28;20299;-54
2021/08/22 08:49:34;;;;;;;;;;;;;;;41.95;13.31;94790.56;5096418;28;19926;-54
2021/08/22 08:52:04;;;;;;;;;;;;;;;41.74;13.53;94783.53;5114030;28;19915;-55
2021/08/22 08:54:38;;;;;;;;;;;;;;;41.51;13.76;94787.94;5114480;28;19916;-54
2021/08/22 08:57:05;;;;;;;;;;;;;;;42.45;13.16;94790.38;5107548;28;19916;-58
2021/08/22 08:59:33;;;;;;;;;;;;;;;42.57;13.62;94780.28;5094199;28;19947;-55
2021/08/22 09:02:00;;;;;;;;;;;;;;;42.49;13.46;94782.72;5097445;28;19923;-55
2021/08/22 09:04:27;;;;;;;;;;;;;;;42.32;13.48;94788.00;5117828;28;19916;-56
2021/08/22 09:07:12;;;;;;;;;;;;;;;42.63;13.50;94779.09;5118276;28;19930;-56
2021/08/22 09:10:08;;;;;;;;;;;;;;;42.56;12.97;94778.78;5110959;28;19923;-55
2021/08/22 09:12:53;;;;;;;;;;;;;;;42.45;13.05;94779.41;5040088;28;19917;-56
2021/08/22 09:15:43;;;;;;;;;;;;;;;42.32;12.51;94776.25;5096839;28;19920;-56
2021/08/22 09:18:26;;;;;;;;;;;;;;;42.65;12.53;94773.09;5092127;28;19924;-55
2021/08/22 09:21:11;;;;;;;;;;;;;;;42.48;12.61;94779.22;5079919;28;19947;-54
2021/08/22 09:23:57;;;;;;;;;;;;;;;41.69;12.51;94776.00;5102700;28;19916;-56
2021/08/22 09:26:39;;;;;;;;;;;;;;;41.72;12.81;94766.81;5101343;28;19923;-56
2021/08/22 09:29:25;;;;;;;;;;;;;;;42.12;12.86;94764.06;5112449;28;20319;-55
2021/08/22 09:32:10;;;;;;;;;;;;;;;41.94;12.79;94769.06;5104058;28;19924;-55
2021/08/22 09:34:56;;;;;;;;;;;;;;;41.72;12.71;94766.81;5092490;28;19923;-56
2021/08/22 09:37:29;;;;;;;;;;;;;;;41.98;12.38;94764.88;5100170;28;19920;-55
2021/08/22 09:40:14;;;;;;;;;;;;;;;42.24;11.99;94761.44;5097604;28;19916;-58
2021/08/22 09:42:56;;;;;;;;;;;;;;;42.06;11.82;94760.50;5078543;28;19917;-56
2021/08/22 09:45:41;;;;;;;;;;;;;;;42.05;12.07;94758.97;5095811;28;19931;-59
2021/08/22 09:48:27;;;;;;;;;;;;;;;41.93;12.06;94757.34;5111257;28;19923;-57
2021/08/22 09:51:13;;;;;;;;;;;;;;;41.98;12.11;94751.16;5082107;28;19954;-56
2021/08/22 09:53:58;;;;;;;;;;;;;;;42.03;11.82;94753.19;5089372;28;19920;-55
2021/08/22 09:56:31;;;;;;;;;;;;;;;42.27;11.78;94752.25;5116387;28;19926;-54
2021/08/22 09:59:17;;;;;;;;;;;;;;;42.41;12.06;94743.13;5117498;28;19928;-55
2021/08/22 10:02:02;;;;;;;;;;;;;;;42.29;11.91;94747.00;5114533;28;19923;-55
2021/08/22 10:04:38;;;;;;;;;;;;;;;42.54;11.51;94742.78;5094630;28;19916;-55
2021/08/22 10:07:13;;;;;;;;;;;;;;;42.58;11.47;94738.59;5096042;28;19924;-55
2021/08/22 10:09:40;;;;;;;;;;;;;;;42.73;11.16;94739.22;5097824;22;20929;-56
2021/08/22 10:12:07;;;;;;;;;;;;;;;43.13;11.55;94739.53;5127426;27;20363;-55
2021/08/22 10:14:38;;;;;;;;;;;;;;;43.08;11.50;94741.75;5137532;27;20237;-56
2021/08/22 10:17:06;;;;;;;;;;;;;;;42.47;11.45;94739.25;5137411;27;19923;-55
2021/08/22 10:19:33;;;;;;;;;;;;;;;42.94;11.89;94730.88;5122363;27;19922;-58
2021/08/22 10:22:11;;;;;;;;;;;;;;;42.53;11.57;94736.53;5136790;27;20297;-57
2021/08/22 10:24:38;;;;;;;;;;;;;;;42.66;11.08;94739.63;5115971;28;19916;-55
2021/08/22 10:27:05;;;;;;;;;;;;;;;42.34;11.48;94729.84;5116989;28;19926;-55
2021/08/22 10:30:01;;;;;;;;;;;;;;;42.57;10.60;94731.56;5116329;28;19981;-55
2021/08/22 10:32:28;;;;;;;;;;;;;;;42.63;10.65;94724.13;5144052;27;19915;-55
2021/08/22 10:35:11;;;;;;;;;;;;;;;42.60;10.44;94730.59;5157849;27;19973;-56
2021/08/22 10:37:38;;;;;;;;;;;;;;;43.19;11.40;94724.56;5157503;27;19919;-46
2021/08/22 10:40:23;;;;;;;;;;;;;;;42.95;11.08;94727.69;5147111;27;19916;-45
2021/08/22 10:43:05;;;;;;;;;;;;;;;43.44;11.19;94727.72;5128767;27;19920;-47
2021/08/22 10:45:48;;;;;;;;;;;;;;;43.07;10.34;94723.00;5125485;27;19923;-47
2021/08/22 10:48:24;;;;;;;;;;;;;;;42.95;10.73;94721.44;5124587;27;19923;-48
2021/08/22 10:50:56;;;;;;;;;;;;;;;42.79;10.81;94711.78;5128429;27;19919;-47
2021/08/22 10:53:30;;;;;;;;;;;;;;;42.77;11.27;94712.25;5136677;27;19915;-47
2021/08/22 10:55:57;;;;;;;;;;;;;;;42.50;11.31;94710.03;5098400;28;19927;-47
2021/08/22 10:58:43;;;;;;;;;;;;;;;41.84;11.62;94717.03;5115989;28;20342;-47
2021/08/22 11:01:19;;;;;;;;;;;;;;;41.93;11.15;94713.41;5117433;27;19920;-46
2021/08/22 11:04:04;;;;;;;;;;;;;;;41.84;10.97;94710.81;5136641;27;20237;-46
2021/08/22 11:06:32;;;;;;;;;;;;;;;42.05;11.00;94715.03;5136715;27;19919;-45
2021/08/22 11:08:59;;;;;;;;;;;;;;;42.26;10.86;94706.78;5136564;27;19922;-48
2021/08/22 11:11:26;;;;;;;;;;;;;;;42.30;10.70;94699.84;5108582;27;20313;-47
2021/08/22 11:13:56;;;;;;;;;;;;;;;42.47;10.79;94700.78;5134455;27;19916;-46
2021/08/22 11:16:45;;;;;;;;;;;;;;;42.62;10.66;94695.16;5125040;27;19930;-46
2021/08/22 11:19:12;;;;;;;;;;;;;;;42.58;10.79;94694.63;5124171;27;19926;-47
2021/08/22 11:21:39;;;;;;;;;;;;;;;42.41;10.43;94697.19;5124614;27;19919;-47
2021/08/22 11:24:07;;;;;;;;;;;;;;;42.33;10.81;94690.63;5127384;27;19919;-47
2021/08/22 11:26:34;;;;;;;;;;;;;;;42.51;10.56;94689.56;5126186;27;19915;-45
2021/08/22 11:29:01;;;;;;;;;;;;;;;42.50;10.47;94690.06;5126655;27;20226;-47
2021/08/22 11:31:31;;;;;;;;;;;;;;;42.40;10.74;94690.19;5129510;27;20327;-46
2021/08/22 11:33:58;;;;;;;;;;;;;;;42.28;10.61;94685.84;5116376;28;19919;-47
2021/08/22 11:36:25;;;;;;;;;;;;;;;41.69;10.46;94683.47;5097333;28;19919;-47
2021/08/22 11:39:11;;;;;;;;;;;;;;;42.63;10.44;94673.91;5115903;28;19930;-48
2021/08/22 11:41:39;;;;;;;;;;;;;;;41.85;10.77;94684.88;5133136;28;19954;-46
2021/08/22 11:44:06;;;;;;;;;;;;;;;42.09;10.71;94677.16;5136441;28;19931;-48
2021/08/22 11:46:33;;;;;;;;;;;;;;;42.13;10.65;94683.19;5122950;28;20310;-47
2021/08/22 11:49:00;;;;;;;;;;;;;;;42.17;10.55;94683.75;5115808;28;19916;-48
2021/08/22 11:51:27;;;;;;;;;;;;;;;42.07;10.79;94671.41;5099832;28;19916;-46
2021/08/22 11:53:54;;;;;;;;;;;;;;;42.01;10.43;94670.56;5135395;28;19916;-46
2021/08/22 11:56:22;;;;;;;;;;;;;;;41.91;10.70;94666.50;5118205;28;19915;-48
2021/08/22 11:58:49;;;;;;;;;;;;;;;42.09;10.80;94666.19;5136005;28;19927;-47
2021/08/22 12:01:20;;;;;;;;;;;;;;;42.31;11.34;94667.63;5134793;28;20336;-54
2021/08/22 12:03:56;;;;;;;;;;;;;;;42.08;11.73;94664.69;5131050;28;19916;-52
2021/08/22 12:06:23;;;;;;;;;;;;;;;42.06;10.75;94656.19;5100771;28;19926;-52
2021/08/22 12:08:50;;;;;;;;;;;;;;;42.31;10.46;94653.91;5130571;28;20230;-51
2021/08/22 12:11:23;;;;;;;;;;;;;;;41.85;10.74;94651.94;5123662;27;19924;-49
2021/08/22 12:13:51;;;;;;;;;;;;;;;41.63;10.79;94657.16;5112896;28;19915;-51
2021/08/22 12:16:24;;;;;;;;;;;;;;;41.72;10.46;94655.06;5135892;28;19923;-52
2021/08/22 12:18:51;;;;;;;;;;;;;;;41.53;10.61;94651.81;5135836;28;19923;-52
2021/08/22 12:21:19;;;;;;;;;;;;;;;41.57;10.27;94648.84;5117084;28;19915;-48
2021/08/22 12:23:47;;;;;;;;;;;;;;;41.71;10.83;94655.53;5117742;28;19926;-55
2021/08/22 12:26:20;;;;;;;;;;;;;;;41.43;10.68;94646.97;5135831;28;19919;-60
2021/08/22 12:28:48;;;;;;;;;;;;;;;41.38;10.29;94653.88;5135745;28;19922;-61
2021/08/22 12:31:18;;;;;;;;;;;;;;;41.19;10.73;94652.59;5119575;27;20344;-53
2021/08/22 12:33:53;;;;;;;;;;;;;;;41.23;10.64;94647.69;5145763;27;19915;-53
2021/08/22 12:36:23;;;;;;;;;;;;;;;41.19;10.65;94649.88;5148423;27;19942;-52
2021/08/22 12:38:53;;;;;;;;;;;;;;;41.00;10.65;94634.91;5111436;27;19927;-50
2021/08/22 12:41:21;;;;;;;;;;;;;;;41.18;10.30;94642.88;5127389;27;19924;-48
2021/08/22 12:43:47;;;;;;;;;;;;;;;41.23;10.52;94628.50;5130507;27;20306;-47
2021/08/22 12:46:15;;;;;;;;;;;;;;;41.36;10.69;94628.91;5129764;27;19919;-48
2021/08/22 12:48:43;;;;;;;;;;;;;;;41.01;10.82;94630.91;5110204;27;19920;-54
2021/08/22 12:51:10;;;;;;;;;;;;;;;41.18;10.16;94631.91;5127728;27;19926;-54
2021/08/22 12:53:38;;;;;;;;;;;;;;;41.18;10.13;94629.16;5130054;27;19915;-59
2021/08/22 12:56:05;;;;;;;;;;;;;;;41.11;10.08;94624.81;5130158;27;19920;-56
2021/08/22 12:58:32;;;;;;;;;;;;;;;41.17;10.54;94622.19;5126727;27;19931;-52